createdAt,value
2019-04-06T00:01:48.359Z,100188.69
2019-04-06T00:04:19.021Z,100186.41
2019-04-06T00:06:49.695Z,100186.28
2019-04-06T00:09:20.701Z,100191.80
2019-04-06T00:11:51.645Z,100191.31
2019-04-06T00:14:22.204Z,100189.62
2019-04-06T00:16:52.905Z,100191.48
2019-04-06T00:19:24.024Z,100186.52
2019-04-06T00:21:54.458Z,100190.68
2019-04-06T00:24:25.615Z,100191.71
2019-04-06T00:26:56.225Z,100198.70
2019-04-06T00:29:26.920Z,100197.37
2019-04-06T00:32:04.990Z,100201.31
2019-04-06T00:34:35.458Z,100201.02
2019-04-06T00:37:06.118Z,100195.28
2019-04-06T00:39:36.995Z,100199.47
2019-04-06T00:42:08.428Z,100201.23
2019-04-06T00:44:39.070Z,100211.54
2019-04-06T00:47:09.730Z,100205.81
2019-04-06T00:49:40.351Z,100204.27
2019-04-06T00:52:11.024Z,100202.27
2019-04-06T00:54:42.873Z,100206.08
2019-04-06T00:57:13.786Z,100206.37
2019-04-06T00:59:44.517Z,100208.67
2019-04-06T01:02:15.061Z,100201.98
2019-04-06T01:04:45.512Z,100205.31
2019-04-06T01:07:16.415Z,100210.47
2019-04-06T01:09:47.657Z,100202.25
2019-04-06T01:12:18.359Z,100198.47
2019-04-06T01:14:48.931Z,100204.47
2019-04-06T01:17:20.120Z,100212.48
2019-04-06T01:19:50.701Z,100210.31
2019-04-06T01:22:21.242Z,100216.22
2019-04-06T01:24:52.066Z,100214.13
2019-04-06T01:27:22.543Z,100214.05
2019-04-06T01:29:53.469Z,100209.23
2019-04-06T01:32:24.274Z,100216.74
2019-04-06T01:34:54.761Z,100218.31
2019-04-06T01:37:25.515Z,100210.64
2019-04-06T01:39:55.984Z,100213.92
2019-04-06T01:42:26.631Z,100218.00
2019-04-06T01:44:57.059Z,100217.72
2019-04-06T01:47:27.762Z,100226.23
2019-04-06T01:49:58.214Z,100225.36
2019-04-06T01:52:28.899Z,100217.92
2019-04-06T01:54:59.396Z,100227.61
2019-04-06T01:57:30.182Z,100216.39
2019-04-06T02:00:00.634Z,100226.86
2019-04-06T02:02:33.125Z,100218.77
2019-04-06T02:05:04.058Z,100219.31
2019-04-06T02:07:34.787Z,100221.92
2019-04-06T02:10:08.276Z,100228.50
2019-04-06T02:12:39.616Z,100225.34
2019-04-06T02:15:09.947Z,100230.25
2019-04-06T02:17:40.504Z,100230.95
2019-04-06T02:20:11.024Z,100231.83
2019-04-06T02:22:41.734Z,100237.77
2019-04-06T02:25:12.262Z,100234.33
2019-04-06T02:27:43.111Z,100239.89
2019-04-06T02:30:21.757Z,100239.48
2019-04-06T02:33:09.990Z,100243.50
2019-04-06T02:35:46.610Z,100246.16
2019-04-06T02:38:37.112Z,100243.19
2019-04-06T02:41:12.102Z,100244.99
2019-04-06T02:43:42.815Z,100248.27
2019-04-06T02:46:13.313Z,100253.53
2019-04-06T02:48:43.744Z,100248.51
2019-04-06T02:51:14.088Z,100247.86
2019-04-06T02:53:44.974Z,100249.42
2019-04-06T02:56:15.715Z,100243.55
2019-04-06T02:58:46.316Z,100240.75
2019-04-06T03:01:17.706Z,100239.38
2019-04-06T03:03:48.269Z,100240.56
2019-04-06T03:06:18.883Z,100239.05
2019-04-06T03:08:49.722Z,100238.81
2019-04-06T03:11:20.773Z,100243.52
2019-04-06T03:13:51.583Z,100246.17
2019-04-06T03:16:22.388Z,100246.80
2019-04-06T03:18:53.227Z,100243.78
2019-04-06T03:21:25.084Z,100243.16
2019-04-06T03:23:55.638Z,100240.16
2019-04-06T03:26:26.360Z,100240.68
2019-04-06T03:28:57.395Z,100246.17
2019-04-06T03:31:28.400Z,100248.09
2019-04-06T03:33:59.734Z,100245.73
2019-04-06T03:36:30.735Z,100245.08
2019-04-06T03:39:01.666Z,100252.80
2019-04-06T03:41:34.270Z,100249.76
2019-04-06T03:44:05.291Z,100250.19
2019-04-06T03:46:35.961Z,100248.77
2019-04-06T03:49:06.807Z,100252.16
2019-04-06T03:51:37.558Z,100253.40
2019-04-06T03:54:08.231Z,100253.68
2019-04-06T03:56:38.745Z,100256.44
2019-04-06T03:59:09.852Z,100265.77
2019-04-06T04:01:41.518Z,100261.94
2019-04-06T04:04:12.030Z,100256.36
2019-04-06T04:06:42.630Z,100262.38
2019-04-06T04:09:13.117Z,100262.31
2019-04-06T04:11:44.793Z,100258.11
2019-04-06T04:14:15.273Z,100255.10
2019-04-06T04:16:46.235Z,100262.29
2019-04-06T04:19:17.276Z,100263.36
2019-04-06T04:21:49.977Z,100258.36
2019-04-06T04:24:21.005Z,100271.59
2019-04-06T04:26:53.201Z,100261.02
2019-04-06T04:29:25.817Z,100259.88
2019-04-06T04:31:56.621Z,100266.38
2019-04-06T04:34:27.482Z,100262.16
2019-04-06T04:36:58.136Z,100272.81
2019-04-06T04:39:28.771Z,100266.39
2019-04-06T04:41:59.333Z,100274.96
2019-04-06T04:44:29.753Z,100274.11
2019-04-06T04:47:00.800Z,100266.63
2019-04-06T04:49:31.560Z,100269.05
2019-04-06T04:52:02.405Z,100261.99
2019-04-06T04:54:32.933Z,100268.58
2019-04-06T04:57:03.811Z,100276.42
2019-04-06T04:59:34.979Z,100274.45
2019-04-06T05:02:06.338Z,100268.84
2019-04-06T05:04:36.914Z,100273.14
2019-04-06T05:07:07.619Z,100278.56
2019-04-06T05:09:38.565Z,100279.12
2019-04-06T05:12:09.519Z,100282.88
2019-04-06T05:15:02.425Z,100281.24
2019-04-06T05:17:33.223Z,100280.94
2019-04-06T05:20:04.801Z,100277.25
2019-04-06T05:22:35.401Z,100286.80
2019-04-06T05:25:06.736Z,100289.97
2019-04-06T05:27:37.437Z,100287.29
2019-04-06T05:30:08.624Z,100294.80
2019-04-06T05:32:39.553Z,100289.88
2019-04-06T05:35:10.749Z,100298.30
2019-04-06T05:37:41.374Z,100305.75
2019-04-06T05:40:12.233Z,100310.28
2019-04-06T05:42:42.932Z,100312.70
2019-04-06T05:45:16.259Z,100303.19
2019-04-06T05:47:46.812Z,100308.81
2019-04-06T05:50:17.641Z,100306.13
2019-04-06T05:52:48.771Z,100312.42
2019-04-06T05:55:19.610Z,100302.27
2019-04-06T05:57:54.042Z,100301.47
2019-04-06T06:00:22.874Z,100309.98
2019-04-06T06:02:53.589Z,100312.39
2019-04-06T06:05:24.489Z,100296.05
2019-04-06T06:07:55.283Z,100306.31
2019-04-06T06:10:26.887Z,100309.42
2019-04-06T06:12:57.503Z,100314.53
2019-04-06T06:15:28.407Z,100317.08
2019-04-06T06:17:59.221Z,100304.89
2019-04-06T06:20:29.711Z,100307.80
2019-04-06T06:23:00.257Z,100327.11
2019-04-06T06:25:30.949Z,100304.70
2019-04-06T06:28:01.925Z,100313.70
2019-04-06T06:30:33.061Z,100318.69
2019-04-06T06:33:03.657Z,100315.41
2019-04-06T06:35:34.622Z,100312.31
2019-04-06T06:38:05.588Z,100314.50
2019-04-06T06:40:36.042Z,100324.34
2019-04-06T06:43:07.117Z,100326.85
2019-04-06T06:45:37.685Z,100319.66
2019-04-06T06:48:08.744Z,100311.56
2019-04-06T06:50:41.170Z,100302.61
2019-04-06T06:53:12.362Z,100302.98
2019-04-06T06:55:42.963Z,100313.70
2019-04-06T06:58:24.577Z,100317.73
2019-04-06T07:00:47.353Z,100312.36
2019-04-06T07:03:17.760Z,100316.09
2019-04-06T07:05:48.689Z,100315.78
2019-04-06T07:08:19.940Z,100311.76
2019-04-06T07:10:50.815Z,100319.14
2019-04-06T07:13:21.653Z,100309.99
2019-04-06T07:15:52.105Z,100319.80
2019-04-06T07:18:23.189Z,100322.13
2019-04-06T07:20:54.224Z,100319.32
2019-04-06T07:23:25.103Z,100316.84
2019-04-06T07:25:58.537Z,100328.19
2019-04-06T07:28:37.175Z,100309.28
2019-04-06T07:31:00.702Z,100309.28
2019-04-06T07:33:32.215Z,100319.31
2019-04-06T07:36:03.084Z,100324.13
2019-04-06T07:38:33.631Z,100319.95
2019-04-06T07:41:04.364Z,100319.95
2019-04-06T07:43:36.489Z,100322.76
2019-04-06T07:46:07.398Z,100333.62
2019-04-06T07:48:39.319Z,100336.75
2019-04-06T07:51:10.215Z,100322.70
2019-04-06T07:53:43.910Z,100284.50
2019-04-06T07:56:14.606Z,100284.50
2019-04-06T07:58:49.459Z,100313.13
2019-04-06T08:01:19.123Z,100316.84
2019-04-06T08:03:52.673Z,100318.54
2019-04-06T08:06:24.826Z,100315.07
2019-04-06T08:08:57.127Z,100319.05
2019-04-06T08:11:29.273Z,100334.45
2019-04-06T08:14:00.411Z,100322.09
2019-04-06T08:16:31.380Z,100301.69
2019-04-06T08:19:02.645Z,100306.70
2019-04-06T08:21:33.376Z,100313.02
2019-04-06T08:24:03.914Z,100317.06
2019-04-06T08:26:34.494Z,100317.59
2019-04-06T08:29:05.149Z,100319.43
2019-04-06T08:31:37.114Z,100314.74
2019-04-06T08:34:08.247Z,100302.69
2019-04-06T08:36:38.618Z,100295.66
2019-04-06T08:39:09.467Z,100331.42
2019-04-06T08:41:40.906Z,100309.28
2019-04-06T08:44:11.325Z,100294.10
2019-04-06T08:46:42.001Z,100295.13
2019-04-06T08:49:13.015Z,100303.73
2019-04-06T08:51:44.097Z,100298.70
2019-04-06T08:54:15.219Z,100295.78
2019-04-06T08:56:46.146Z,100303.28
2019-04-06T08:59:17.230Z,100300.38
2019-04-06T09:01:50.066Z,100276.51
2019-04-06T09:04:22.309Z,100295.91
2019-04-06T09:06:55.407Z,100281.63
2019-04-06T09:09:26.371Z,100281.30
2019-04-06T09:11:57.759Z,100272.60
2019-04-06T09:14:28.812Z,100266.27
2019-04-06T09:17:00.386Z,100270.84
2019-04-06T09:19:34.734Z,100262.97
2019-04-06T09:22:07.526Z,100280.47
2019-04-06T09:24:38.460Z,100274.83
2019-04-06T09:27:09.505Z,100267.67
2019-04-06T09:29:40.528Z,100269.73
2019-04-06T09:32:11.521Z,100270.06
2019-04-06T09:34:43.391Z,100272.17
2019-04-06T09:37:14.391Z,100278.52
2019-04-06T09:39:45.318Z,100267.08
2019-04-06T09:42:19.236Z,100271.27
2019-04-06T09:44:55.116Z,100271.17
2019-04-06T09:47:44.551Z,100268.38
2019-04-06T09:50:34.275Z,100267.20
2019-04-06T09:53:13.260Z,100258.64
2019-04-06T09:55:49.559Z,100263.53
2019-04-06T09:58:34.649Z,100269.00
2019-04-06T10:01:12.900Z,100253.63
2019-04-06T10:04:01.324Z,100264.37
2019-04-06T10:06:34.320Z,100257.23
2019-04-06T10:09:13.032Z,100255.20
2019-04-06T10:11:46.251Z,100263.94
2019-04-06T10:14:35.732Z,100254.42
2019-04-06T10:17:25.112Z,100260.48
2019-04-06T10:20:07.386Z,100259.47
2019-04-06T10:22:42.976Z,100258.70
2019-04-06T10:25:18.636Z,100256.09
2019-04-06T10:28:08.638Z,100251.99
2019-04-06T10:30:57.881Z,100250.70
2019-04-06T10:33:37.128Z,100244.16
2019-04-06T10:36:12.389Z,100244.92
2019-04-06T10:39:01.442Z,100242.39
2019-04-06T10:41:48.741Z,100246.87
2019-04-06T10:44:40.084Z,100246.46
2019-04-06T10:47:13.053Z,100248.80
2019-04-06T10:50:02.062Z,100238.03
2019-04-06T10:52:54.788Z,100252.84
2019-04-06T10:55:46.420Z,100243.41
2019-04-06T10:58:28.886Z,100237.44
2019-04-06T11:01:02.178Z,100228.40
2019-04-06T11:03:44.195Z,100242.25
2019-04-06T11:06:22.924Z,100231.02
2019-04-06T11:09:12.358Z,100225.56
2019-04-06T11:12:00.589Z,100235.53
2019-04-06T11:14:32.954Z,100225.60
2019-04-06T11:17:05.539Z,100220.55
2019-04-06T11:19:45.296Z,100234.27
2019-04-06T11:22:34.057Z,100219.73
2019-04-06T11:25:11.311Z,100233.42
2019-04-06T11:27:58.527Z,100226.59
2019-04-06T11:30:47.227Z,100223.98
2019-04-06T11:33:38.626Z,100246.13
2019-04-06T11:36:11.284Z,100222.00
2019-04-06T11:38:59.268Z,100221.10
2019-04-06T11:41:40.934Z,100214.85
2019-04-06T11:44:22.805Z,100214.30
2019-04-06T11:46:57.010Z,100215.09
2019-04-06T11:49:36.752Z,100229.59
2019-04-06T11:52:21.680Z,100222.50
2019-04-06T11:54:54.658Z,100207.98
2019-04-06T11:57:35.171Z,100220.08
2019-04-06T12:00:27.539Z,100210.59
2019-04-06T12:03:16.397Z,100224.34
2019-04-06T12:05:49.065Z,100203.95
2019-04-06T12:08:38.450Z,100203.36
2019-04-06T12:11:17.322Z,100204.77
2019-04-06T12:13:50.066Z,100204.11
2019-04-06T12:16:23.583Z,100197.25
2019-04-06T12:19:02.200Z,100188.11
2019-04-06T12:21:50.488Z,100185.08
2019-04-06T12:24:25.845Z,100195.22
2019-04-06T12:27:14.843Z,100187.27
2019-04-06T12:29:48.690Z,100194.53
2019-04-06T12:32:36.099Z,100189.79
2019-04-06T12:35:24.616Z,100190.89
2019-04-06T12:38:03.684Z,100188.67
2019-04-06T12:40:42.472Z,100178.66
2019-04-06T12:43:32.871Z,100170.07
2019-04-06T12:46:14.460Z,100166.05
2019-04-06T12:48:52.728Z,100154.56
2019-04-06T12:51:25.712Z,100155.31
2019-04-06T12:54:07.678Z,100151.22
2019-04-06T12:56:40.891Z,100158.09
2019-04-06T12:59:19.635Z,100144.97
2019-04-06T13:02:07.565Z,100169.70
2019-04-06T13:04:40.539Z,100148.78
2019-04-06T13:07:31.411Z,100148.67
2019-04-06T13:10:22.204Z,100152.64
2019-04-06T13:13:03.988Z,100148.80
2019-04-06T13:15:41.327Z,100160.36
2019-04-06T13:18:20.547Z,100156.33
2019-04-06T13:20:59.881Z,100164.31
2019-04-06T13:23:44.514Z,100157.96
2019-04-06T13:26:22.572Z,100153.99
2019-04-06T13:29:11.518Z,100143.75
2019-04-06T13:31:49.983Z,100141.90
2019-04-06T13:34:31.564Z,100132.40
2019-04-06T13:37:07.602Z,100126.34
2019-04-06T13:39:40.848Z,100143.58
2019-04-06T13:42:31.682Z,100138.25
2019-04-06T13:45:19.551Z,100127.18
2019-04-06T13:48:07.842Z,100121.63
2019-04-06T13:50:53.709Z,100135.76
2019-04-06T13:53:30.306Z,100118.14
2019-04-06T13:56:06.182Z,100128.38
2019-04-06T13:58:41.391Z,100130.10
2019-04-06T14:01:19.776Z,100125.63
2019-04-06T14:04:05.044Z,100125.23
2019-04-06T14:06:44.131Z,100131.81
2019-04-06T14:09:20.228Z,100121.21
2019-04-06T14:12:04.570Z,100131.38
2019-04-06T14:14:49.467Z,100124.91
2019-04-06T14:17:34.227Z,100136.06
2019-04-06T14:20:14.817Z,100136.53
2019-04-06T14:22:48.992Z,100136.91
2019-04-06T14:25:26.057Z,100124.61
2019-04-06T14:28:10.961Z,100127.88
2019-04-06T14:30:43.458Z,100137.38
2019-04-06T14:33:19.623Z,100148.03
2019-04-06T14:35:52.264Z,100123.84
2019-04-06T14:38:25.395Z,100117.43
2019-04-06T14:41:03.939Z,100132.72
2019-04-06T14:43:53.616Z,100133.70
2019-04-06T14:46:34.944Z,100152.21
2019-04-06T14:49:29.463Z,100130.84
2019-04-06T14:51:56.664Z,100126.53
2019-04-06T14:54:48.115Z,100120.59
2019-04-06T14:57:24.164Z,100123.27
2019-04-06T14:59:57.079Z,100116.81
2019-04-06T15:02:44.773Z,100132.86
2019-04-06T15:05:23.479Z,100127.02
2019-04-06T15:08:01.830Z,100125.20
2019-04-06T15:10:35.674Z,100122.41
2019-04-06T15:13:12.145Z,100128.75
2019-04-06T15:15:44.565Z,100141.89
2019-04-06T15:18:33.327Z,100131.62
2019-04-06T15:21:07.858Z,100138.16
2019-04-06T15:23:56.537Z,100135.20
2019-04-06T15:26:38.107Z,100141.05
2019-04-06T15:29:29.641Z,100125.48
2019-04-06T15:32:17.061Z,100117.70
2019-04-06T15:34:55.639Z,100123.01
2019-04-06T15:37:31.116Z,100118.31
2019-04-06T15:40:12.575Z,100107.36
2019-04-06T15:42:45.114Z,100119.45
2019-04-06T15:45:20.364Z,100119.02
2019-04-06T15:47:52.905Z,100129.78
2019-04-06T15:50:28.379Z,100126.14
2019-04-06T15:53:07.262Z,100127.66
2019-04-06T15:55:39.939Z,100134.00
2019-04-06T15:58:15.812Z,100123.50
2019-04-06T16:00:51.038Z,100119.98
2019-04-06T16:03:23.626Z,100115.81
2019-04-06T16:06:00.010Z,100137.42
2019-04-06T16:08:35.943Z,100123.97
2019-04-06T16:11:22.025Z,100127.52
2019-04-06T16:13:59.318Z,100123.20
2019-04-06T16:16:32.247Z,100128.89
2019-04-06T16:19:24.002Z,100125.14
2019-04-06T16:21:56.554Z,100123.48
2019-04-06T16:24:29.135Z,100130.12
2019-04-06T16:27:09.555Z,100128.51
2019-04-06T16:29:49.313Z,100129.86
2019-04-06T16:32:31.439Z,100137.91
2019-04-06T16:34:57.161Z,100132.48
2019-04-06T16:37:36.202Z,100146.00
2019-04-06T16:40:18.620Z,100144.64
2019-04-06T16:42:52.385Z,100144.11
2019-04-06T16:45:27.590Z,100171.08
2019-04-06T16:48:16.534Z,100154.27
2019-04-06T16:50:55.660Z,100150.41
2019-04-06T16:53:44.106Z,100152.69
2019-04-06T16:56:16.618Z,100148.84
2019-04-06T16:58:52.675Z,100153.23
2019-04-06T17:01:25.341Z,100153.66
2019-04-06T17:04:13.544Z,100161.84
2019-04-06T17:07:03.196Z,100143.55
2019-04-06T17:09:36.506Z,100155.75
2019-04-06T17:12:13.338Z,100157.64
2019-04-06T17:15:04.794Z,100155.91
2019-04-06T17:17:45.847Z,100160.58
2019-04-06T17:20:21.666Z,100153.69
2019-04-06T17:23:00.609Z,100162.91
2019-04-06T17:25:41.895Z,100158.64
2019-04-06T17:28:17.304Z,100157.44
2019-04-06T17:30:49.993Z,100164.03
2019-04-06T17:33:40.915Z,100159.17
2019-04-06T17:36:26.025Z,100167.25
2019-04-06T17:39:10.708Z,100162.31
2019-04-06T17:41:46.522Z,100164.41
2019-04-06T17:44:31.230Z,100164.28
2019-04-06T17:47:21.247Z,100157.92
2019-04-06T17:50:10.207Z,100166.80
2019-04-06T17:52:51.621Z,100172.85
2019-04-06T17:55:42.663Z,100170.55
2019-04-06T17:58:16.289Z,100168.23
2019-04-06T18:00:50.483Z,100173.47
2019-04-06T18:03:26.356Z,100173.51
2019-04-06T18:06:06.690Z,100185.27
2019-04-06T18:08:55.953Z,100182.83
2019-04-06T18:11:32.707Z,100206.34
2019-04-06T18:14:05.580Z,100187.39
2019-04-06T18:16:36.563Z,100187.39
2019-04-06T18:19:07.686Z,100186.89
2019-04-06T18:21:39.156Z,100194.11
2019-04-06T18:24:11.252Z,100191.85
2019-04-06T18:26:42.979Z,100192.69
2019-04-06T18:29:13.939Z,100195.77
2019-04-06T18:31:56.084Z,100196.50
2019-04-06T18:34:27.346Z,100202.70
2019-04-06T18:37:04.515Z,100193.91
2019-04-06T18:39:36.176Z,100204.15
2019-04-06T18:42:07.463Z,100203.25
2019-04-06T18:44:41.974Z,100206.01
2019-04-06T18:47:12.978Z,100211.11
2019-04-06T18:49:44.303Z,100214.94
2019-04-06T18:52:16.896Z,100212.91
2019-04-06T18:54:48.262Z,100213.98
2019-04-06T18:57:22.943Z,100213.52
2019-04-06T18:59:53.809Z,100210.03
2019-04-06T19:02:24.750Z,100210.53
2019-04-06T19:04:57.272Z,100213.87
2019-04-06T19:07:28.206Z,100216.89
2019-04-06T19:10:00.815Z,100209.22
2019-04-06T19:12:33.546Z,100218.73
2019-04-06T19:15:06.968Z,100216.23
2019-04-06T19:17:39.574Z,100212.12
2019-04-06T19:20:13.079Z,100214.97
2019-04-06T19:22:45.375Z,100223.37
2019-04-06T19:25:16.105Z,100223.80
2019-04-06T19:27:47.714Z,100210.98
2019-04-06T19:30:19.691Z,100213.20
2019-04-06T19:32:52.740Z,100208.85
2019-04-06T19:35:25.903Z,100214.36
2019-04-06T19:37:57.695Z,100206.25
2019-04-06T19:40:29.302Z,100207.51
2019-04-06T19:43:01.055Z,100211.27
2019-04-06T19:45:32.892Z,100201.06
2019-04-06T19:48:04.958Z,100200.55
2019-04-06T19:50:37.496Z,100205.58
2019-04-06T19:53:08.901Z,100204.64
2019-04-06T19:55:42.470Z,100209.56
2019-04-06T19:58:14.211Z,100208.53
2019-04-06T20:00:46.961Z,100206.08
2019-04-06T20:03:19.145Z,100206.62
2019-04-06T20:05:50.421Z,100206.30
2019-04-06T20:08:23.196Z,100200.63
2019-04-06T20:10:54.380Z,100204.37
2019-04-06T20:13:28.246Z,100198.53
2019-04-06T20:16:00.836Z,100204.73
2019-04-06T20:18:32.464Z,100204.52
2019-04-06T20:21:03.839Z,100196.13
2019-04-06T20:23:34.876Z,100193.88
2019-04-06T20:26:06.280Z,100194.39
2019-04-06T20:28:37.503Z,100194.64
2019-04-06T20:31:10.643Z,100198.98
2019-04-06T20:33:50.174Z,100192.70
2019-04-06T20:36:14.994Z,100193.27
2019-04-06T20:38:46.361Z,100199.13
2019-04-06T20:41:18.349Z,100190.53
2019-04-06T20:43:49.455Z,100196.26
2019-04-06T20:46:22.314Z,100191.77
2019-04-06T20:48:53.894Z,100188.80
2019-04-06T20:51:25.407Z,100190.43
2019-04-06T20:53:58.707Z,100188.24
2019-04-06T20:56:30.471Z,100194.44
2019-04-06T20:59:03.186Z,100185.65
2019-04-06T21:01:34.703Z,100195.31
2019-04-06T21:04:05.455Z,100200.06
2019-04-06T21:06:37.727Z,100195.59
2019-04-06T21:09:14.386Z,100182.34
2019-04-06T21:11:46.901Z,100185.11
2019-04-06T21:14:18.063Z,100181.92
2019-04-06T21:16:51.596Z,100185.63
2019-04-06T21:19:22.601Z,100179.69
2019-04-06T21:21:54.530Z,100178.27
2019-04-06T21:24:28.327Z,100186.23
2019-04-06T21:27:00.592Z,100184.38
2019-04-06T21:29:32.491Z,100181.22
2019-04-06T21:32:03.419Z,100179.41
2019-04-06T21:34:35.220Z,100172.20
2019-04-06T21:37:06.304Z,100172.08
2019-04-06T21:39:41.702Z,100170.13
2019-04-06T21:42:12.933Z,100171.73
2019-04-06T21:44:43.683Z,100172.22
2019-04-06T21:47:14.422Z,100165.84
2019-04-06T21:49:45.459Z,100162.59
2019-04-06T21:52:18.100Z,100169.95
2019-04-06T21:54:49.766Z,100164.30
2019-04-06T21:57:21.840Z,100168.77
2019-04-06T21:59:53.227Z,100163.43
2019-04-06T22:02:24.209Z,100160.84
2019-04-06T22:04:55.174Z,100157.48
2019-04-06T22:07:25.878Z,100159.98
2019-04-06T22:09:57.066Z,100155.42
2019-04-06T22:12:28.413Z,100153.81
2019-04-06T22:14:59.936Z,100151.98
2019-04-06T22:17:32.935Z,100151.70
2019-04-06T22:20:04.152Z,100145.66
2019-04-06T22:22:35.561Z,100141.94
2019-04-06T22:25:06.571Z,100142.56
2019-04-06T22:27:37.426Z,100142.73
2019-04-06T22:30:10.246Z,100144.33
2019-04-06T22:32:41.439Z,100138.99
2019-04-06T22:35:12.548Z,100140.81
2019-04-06T22:37:46.505Z,100135.08
2019-04-06T22:40:18.055Z,100138.65
2019-04-06T22:42:49.124Z,100141.05
2019-04-06T22:45:21.506Z,100143.90
2019-04-06T22:47:52.239Z,100148.07
2019-04-06T22:50:23.407Z,100137.23
2019-04-06T22:52:54.407Z,100137.95
2019-04-06T22:55:25.530Z,100138.80
2019-04-06T22:57:56.972Z,100137.80
2019-04-06T23:00:32.547Z,100135.58
2019-04-06T23:03:05.438Z,100133.25
2019-04-06T23:05:44.094Z,100131.63
2019-04-06T23:08:15.843Z,100136.32
2019-04-06T23:10:47.598Z,100137.02
2019-04-06T23:13:18.754Z,100133.34
2019-04-06T23:15:50.897Z,100134.75
2019-04-06T23:18:23.037Z,100138.12
2019-04-06T23:20:53.883Z,100138.75
2019-04-06T23:23:25.728Z,100126.73
2019-04-06T23:25:56.639Z,100132.14
2019-04-06T23:28:27.549Z,100131.84
2019-04-06T23:30:58.668Z,100124.30
2019-04-06T23:33:30.291Z,100132.11
2019-04-06T23:36:01.212Z,100133.22
2019-04-06T23:38:31.952Z,100133.59
2019-04-06T23:41:02.666Z,100132.19
2019-04-06T23:43:33.751Z,100131.15
2019-04-06T23:46:04.302Z,100130.77
2019-04-06T23:48:36.355Z,100131.35
2019-04-06T23:51:08.780Z,100128.55
2019-04-06T23:53:39.883Z,100131.31
2019-04-06T23:56:10.858Z,100126.44
2019-04-06T23:58:43.353Z,100134.44
